BOS weather

General Edward Lawrence Logan International Airport
Boston, Massachusetts, United States

Public forecast

Using degrees Fahrenheit for public forecast. Weather courtesy of forecast.io.

METAR (pilot weather report)

Retrieved 2017/10/24 05:54 UTC (49 minutes ago):

KBOS 240554Z 16009KT 10SM FEW035 17/16 A3010 RMK AO2 SLP191 T01720156 10183 20139 56021

TAF (pilot weather forecast)

Retrieved 2017/10/24 06:31 UTC (12 minutes ago):

TAF KBOS 240524Z 2406/2512 15007KT P6SM SCT030 WS020/18035KT FM241400 16013G22KT P6SM VCSH SCT020 OVC030 FM242000 17016G26KT P6SM VCSH OVC020 FM250100 17015G27KT P6SM -RA OVC015